Time,TemperatureF,DewpointF,PressureIn,WindDirection,WindDirectionDegrees,WindSpeedMPH,WindSpeedGustMPH,Humidity,HourlyPrecipIn,Conditions,Clouds,dailyrainin,SoftwareType,DateUTC
2013-04-19 00:01:00,65.8,52.5,29.69,South,172,12.8,18.3,62,0.00,,BKN260,0.00,VWS V14.01,2013-04-19 04:01:00,
2013-04-19 00:03:00,65.8,52.5,29.69,SSW,196,13.2,18.3,62,0.00,,BKN260,0.00,VWS V14.01,2013-04-19 04:03:00,
2013-04-19 00:08:00,65.8,52.5,29.66,South,170,15.4,20.6,62,0.00,,BKN260,0.00,VWS V14.01,2013-04-19 04:08:00,
2013-04-19 00:09:00,65.8,52.5,29.66,SSW,192,13.6,20.6,62,0.00,,BKN260,0.00,VWS V14.01,2013-04-19 04:09:00,
2013-04-19 00:15:00,66.0,52.2,29.66,SSE,162,12.8,23.7,61,0.00,,BKN260,0.00,VWS V14.01,2013-04-19 04:15:00,
2013-04-19 00:20:00,65.8,52.0,29.66,South,175,10.1,17.4,61,0.00,,BKN260,0.00,VWS V14.01,2013-04-19 04:20:00,
2013-04-19 00:25:00,65.8,52.0,29.66,SSE,166,10.5,17.0,61,0.00,,BKN260,0.00,VWS V14.01,2013-04-19 04:25:00,
2013-04-19 00:30:00,65.8,52.0,29.66,SSE,149,15.4,19.2,61,0.00,,BKN260,0.00,VWS V14.01,2013-04-19 04:30:00,
2013-04-19 00:35:00,66.0,52.2,29.66,SE,128,22.8,22.8,61,0.00,,BKN260,0.00,VWS V14.01,2013-04-19 04:35:00,
2013-04-19 00:40:00,66.0,52.2,29.66,South,180,19.7,20.6,61,0.00,,BKN260,0.00,VWS V14.01,2013-04-19 04:40:00,
2013-04-19 00:45:00,66.0,52.2,29.66,SSW,197,14.5,20.1,61,0.00,,BKN260,0.00,VWS V14.01,2013-04-19 04:45:00,
2013-04-19 00:50:00,66.2,51.9,29.66,South,174,11.0,26.2,60,0.00,,BKN260,0.00,VWS V14.01,2013-04-19 04:50:00,
2013-04-19 00:55:00,66.2,51.9,29.66,South,183,17.4,23.7,60,0.00,,BKN260,0.00,VWS V14.01,2013-04-19 04:55:00,
2013-04-19 01:00:00,66.2,51.9,29.66,South,180,13.6,17.9,60,0.00,,BKN260,0.00,VWS V14.01,2013-04-19 05:00:00,
2013-04-19 01:05:00,66.2,51.9,29.66,South,175,17.0,18.3,60,0.00,,BKN250,0.00,VWS V14.01,2013-04-19 05:05:00,
2013-04-19 01:10:00,66.0,51.8,29.66,SSW,210,8.7,16.8,60,0.00,,BKN250,0.00,VWS V14.01,2013-04-19 05:10:00,
2013-04-19 01:15:00,66.0,52.2,29.66,South,172,11.0,12.8,61,0.00,,BKN250,0.00,VWS V14.01,2013-04-19 05:15:00,
2013-04-19 01:20:00,66.0,52.2,29.66,South,183,12.3,12.3,61,0.00,,BKN250,0.00,VWS V14.01,2013-04-19 05:20:00,
2013-04-19 01:25:00,65.7,51.9,29.69,SSW,213,10.1,10.1,61,0.00,,BKN250,0.00,VWS V14.01,2013-04-19 05:25:00,
2013-04-19 01:30:00,65.5,51.7,29.69,South,176,5.8,10.1,61,0.00,,BKN250,0.00,VWS V14.01,2013-04-19 05:30:00,
2013-04-19 01:35:00,65.3,51.5,29.69,South,180,3.6,9.2,61,0.00,,BKN250,0.00,VWS V14.01,2013-04-19 05:35:00,
2013-04-19 01:40:00,65.1,51.3,29.69,SW,217,4.9,6.3,61,0.00,,BKN250,0.00,VWS V14.01,2013-04-19 05:40:00,
2013-04-19 01:45:00,65.5,52.1,29.69,SSW,197,8.1,13.2,62,0.00,,BKN250,0.00,VWS V14.01,2013-04-19 05:45:00,
2013-04-19 01:50:00,65.5,51.7,29.69,WSW,254,7.6,13.2,61,0.00,,BKN250,0.00,VWS V14.01,2013-04-19 05:50:00,
2013-04-19 01:55:00,65.8,52.0,29.69,WSW,243,5.4,16.8,61,0.00,,BKN250,0.00,VWS V14.01,2013-04-19 05:55:00,
2013-04-19 02:00:00,65.8,52.0,29.69,SSW,196,12.8,15.4,61,0.00,,BKN250,0.00,VWS V14.01,2013-04-19 06:00:00,
2013-04-19 02:05:00,65.8,52.0,29.69,SW,222,7.2,12.8,61,0.00,,BKN250,0.00,VWS V14.01,2013-04-19 06:05:00,
2013-04-19 02:10:00,65.5,51.7,29.69,SW,224,10.1,10.1,61,0.00,,BKN250,0.00,VWS V14.01,2013-04-19 06:10:00,
2013-04-19 02:15:00,65.7,51.9,29.69,SSW,194,4.9,16.8,61,0.00,,BKN250,0.00,VWS V14.01,2013-04-19 06:15:00,
2013-04-19 02:20:00,65.3,51.5,29.66,South,172,5.8,10.5,61,0.00,,BKN250,0.00,VWS V14.01,2013-04-19 06:20:00,
2013-04-19 02:25:00,65.3,51.5,29.66,SSW,211,10.5,11.0,61,0.00,,BKN250,0.00,VWS V14.01,2013-04-19 06:25:00,
2013-04-19 02:30:00,65.1,51.8,29.66,SSW,209,8.3,10.5,62,0.00,,BKN250,0.00,VWS V14.01,2013-04-19 06:30:00,
2013-04-19 02:35:00,65.3,51.5,29.66,SSW,207,8.1,13.2,61,0.00,,BKN250,0.00,VWS V14.01,2013-04-19 06:35:00,
2013-04-19 02:40:00,65.1,51.3,29.66,SSE,162,7.2,10.1,61,0.00,,BKN250,0.00,VWS V14.01,2013-04-19 06:40:00,
2013-04-19 02:45:00,65.1,51.3,29.66,SSW,198,6.3,8.7,61,0.00,,BKN250,0.00,VWS V14.01,2013-04-19 06:45:00,
2013-04-19 02:50:00,64.9,51.2,29.66,SSE,165,6.3,12.3,61,0.00,,BKN250,0.00,VWS V14.01,2013-04-19 06:50:00,
2013-04-19 02:55:00,64.8,51.0,29.66,South,175,5.8,10.1,61,0.00,,BKN250,0.00,VWS V14.01,2013-04-19 06:55:00,
2013-04-19 03:00:00,64.8,51.0,29.66,SW,229,5.8,8.1,61,0.00,,BKN250,0.00,VWS V14.01,2013-04-19 07:00:00,
2013-04-19 03:05:00,64.6,50.8,29.66,SSE,165,4.9,8.7,61,0.00,,BKN250,0.00,VWS V14.01,2013-04-19 07:05:00,
2013-04-19 03:10:00,64.8,51.0,29.63,SSW,210,4.9,8.3,61,0.00,,BKN250,0.00,VWS V14.01,2013-04-19 07:10:00,
2013-04-19 03:15:00,64.4,50.7,29.63,SSW,197,4.9,6.7,61,0.00,,BKN250,0.00,VWS V14.01,2013-04-19 07:15:00,
2013-04-19 03:20:00,64.4,50.7,29.63,South,177,5.8,8.7,61,0.00,,BKN250,0.00,VWS V14.01,2013-04-19 07:20:00,
2013-04-19 03:25:00,64.4,50.7,29.63,South,184,4.0,7.6,61,0.00,,BKN250,0.00,VWS V14.01,2013-04-19 07:25:00,
2013-04-19 03:30:00,64.6,50.4,29.63,SW,219,8.1,10.5,60,0.00,,BKN250,0.00,VWS V14.01,2013-04-19 07:30:00,
2013-04-19 03:35:00,64.6,50.4,29.63,SW,215,5.4,8.3,60,0.00,,BKN240,0.00,VWS V14.01,2013-04-19 07:35:00,
2013-04-19 03:41:00,64.8,50.1,29.63,South,172,5.8,11.0,59,0.00,,BKN240,0.00,VWS V14.01,2013-04-19 07:41:00,
2013-04-19 03:46:00,64.8,50.1,29.63,South,182,7.2,12.8,59,0.00,,BKN240,0.00,VWS V14.01,2013-04-19 07:46:00,
2013-04-19 03:51:00,64.8,50.1,29.63,SSW,204,11.0,12.3,59,0.00,,BKN240,0.00,VWS V14.01,2013-04-19 07:51:00,
2013-04-19 03:56:00,64.8,50.1,29.63,South,188,8.7,11.0,59,0.00,,BKN240,0.00,VWS V14.01,2013-04-19 07:56:00,
2013-04-19 04:01:00,64.8,49.7,29.63,South,181,11.0,11.0,58,0.00,,BKN240,0.00,VWS V14.01,2013-04-19 08:01:00,
2013-04-19 04:06:00,64.8,49.7,29.60,SSW,194,11.9,11.9,58,0.00,,BKN240,0.00,VWS V14.01,2013-04-19 08:06:00,
2013-04-19 04:11:00,64.9,49.4,29.60,SSW,202,8.1,14.1,57,0.00,,BKN240,0.00,VWS V14.01,2013-04-19 08:11:00,
2013-04-19 04:16:00,64.8,49.7,29.60,South,176,10.1,10.1,58,0.00,,BKN240,0.00,VWS V14.01,2013-04-19 08:16:00,
2013-04-19 04:21:00,64.9,49.4,29.60,SSE,167,6.3,9.2,57,0.00,,BKN240,0.00,VWS V14.01,2013-04-19 08:21:00,
2013-04-19 04:26:00,64.9,49.4,29.60,South,189,12.8,14.5,57,0.00,,BKN240,0.00,VWS V14.01,2013-04-19 08:26:00,
2013-04-19 04:31:00,64.9,49.4,29.60,South,191,13.2,16.3,57,0.00,,BKN240,0.00,VWS V14.01,2013-04-19 08:31:00,
2013-04-19 04:36:00,65.1,49.0,29.60,SSW,193,14.5,19.7,56,0.00,,BKN250,0.00,VWS V14.01,2013-04-19 08:36:00,
2013-04-19 04:41:00,65.1,49.0,29.60,SW,214,10.1,15.0,56,0.00,,BKN250,0.00,VWS V14.01,2013-04-19 08:41:00,
2013-04-19 04:46:00,65.1,49.0,29.60,South,182,15.0,18.8,56,0.00,,BKN250,0.00,VWS V14.01,2013-04-19 08:46:00,
2013-04-19 04:51:00,65.1,49.0,29.60,SSE,164,16.3,17.4,56,0.00,,BKN250,0.00,VWS V14.01,2013-04-19 08:51:00,
2013-04-19 04:56:00,65.1,49.0,29.60,SSW,209,13.6,18.8,56,0.00,,BKN250,0.00,VWS V14.01,2013-04-19 08:56:00,
2013-04-19 05:01:00,65.3,49.2,29.60,South,188,10.5,15.4,56,0.00,,BKN250,0.00,VWS V14.01,2013-04-19 09:01:00,
2013-04-19 05:06:00,65.1,49.0,29.60,South,189,12.3,17.9,56,0.00,,BKN250,0.00,VWS V14.01,2013-04-19 09:06:00,
2013-04-19 05:11:00,65.1,49.0,29.60,SSE,153,14.5,17.4,56,0.00,,BKN250,0.00,VWS V14.01,2013-04-19 09:11:00,
2013-04-19 05:16:00,64.9,48.9,29.60,SSW,199,12.8,15.4,56,0.00,,BKN250,0.00,VWS V14.01,2013-04-19 09:16:00,
2013-04-19 05:21:00,64.9,48.9,29.60,SSE,164,10.5,15.9,56,0.00,,BKN250,0.00,VWS V14.01,2013-04-19 09:21:00,
2013-04-19 05:26:00,64.8,48.7,29.60,South,172,8.7,11.0,56,0.00,,BKN250,0.00,VWS V14.01,2013-04-19 09:26:00,
2013-04-19 05:31:00,64.6,48.5,29.60,South,184,12.8,12.8,56,0.00,,BKN250,0.00,VWS V14.01,2013-04-19 09:31:00,
2013-04-19 05:36:00,64.6,49.0,29.60,South,184,11.9,11.9,57,0.00,,BKN250,0.00,VWS V14.01,2013-04-19 09:36:00,
2013-04-19 05:41:00,64.6,49.0,29.60,SSW,192,13.2,13.2,57,0.00,,BKN250,0.00,VWS V14.01,2013-04-19 09:41:00,
2013-04-19 05:46:00,64.6,49.0,29.60,SE,140,8.1,8.7,57,0.00,,BKN250,0.00,VWS V14.01,2013-04-19 09:46:00,
2013-04-19 05:51:00,64.4,48.8,29.60,South,183,8.3,8.7,57,0.00,,BKN250,0.00,VWS V14.01,2013-04-19 09:51:00,
2013-04-19 05:56:00,64.2,48.7,29.60,SSE,164,8.3,11.0,57,0.00,,BKN250,0.00,VWS V14.01,2013-04-19 09:56:00,
2013-04-19 06:01:00,64.2,48.7,29.60,South,171,13.2,13.2,57,0.00,,BKN250,0.00,VWS V14.01,2013-04-19 10:01:00,
2013-04-19 06:06:00,64.0,49.0,29.57,SSE,152,12.8,12.8,58,0.00,,BKN250,0.00,VWS V14.01,2013-04-19 10:06:00,
2013-04-19 06:11:00,64.2,49.2,29.57,SSW,211,13.2,15.4,58,0.00,,BKN250,0.00,VWS V14.01,2013-04-19 10:11:00,
2013-04-19 06:16:00,64.0,48.5,29.57,SSW,209,8.7,13.6,57,0.00,,BKN250,0.00,VWS V14.01,2013-04-19 10:16:00,
2013-04-19 06:21:00,64.0,49.0,29.57,South,188,10.1,12.8,58,0.00,,BKN250,0.00,VWS V14.01,2013-04-19 10:21:00,
2013-04-19 06:26:00,63.9,48.8,29.57,South,173,15.0,17.4,58,0.00,,BKN250,0.00,VWS V14.01,2013-04-19 10:26:00,
2013-04-19 06:31:00,64.0,49.0,29.57,SSE,164,13.6,17.4,58,0.00,,BKN250,0.00,VWS V14.01,2013-04-19 10:31:00,
2013-04-19 06:36:00,64.0,48.5,29.57,SSW,197,15.4,15.4,57,0.00,,BKN250,0.00,VWS V14.01,2013-04-19 10:36:00,
2013-04-19 06:41:00,63.9,48.8,29.57,SSE,160,12.3,15.4,58,0.00,,BKN250,0.00,VWS V14.01,2013-04-19 10:41:00,
2013-04-19 06:46:00,64.0,49.0,29.57,South,180,15.4,19.2,58,0.00,,BKN250,0.00,VWS V14.01,2013-04-19 10:46:00,
2013-04-19 06:51:00,64.0,49.0,29.57,South,169,9.2,17.0,58,0.00,,BKN250,0.00,VWS V14.01,2013-04-19 10:51:00,
2013-04-19 06:56:00,63.9,48.8,29.57,SE,144,10.5,15.0,58,0.00,,BKN250,0.00,VWS V14.01,2013-04-19 10:56:00,
2013-04-19 07:01:00,63.9,48.8,29.57,South,176,8.7,15.4,58,0.00,,BKN250,0.00,VWS V14.01,2013-04-19 11:01:00,
2013-04-19 07:06:00,63.9,48.8,29.57,South,185,8.7,13.6,58,0.00,,BKN250,0.00,VWS V14.01,2013-04-19 11:06:00,
2013-04-19 07:12:00,63.9,49.3,29.57,SSE,168,12.8,14.5,59,0.00,,BKN250,0.00,VWS V14.01,2013-04-19 11:12:00,
2013-04-19 07:17:00,63.9,49.3,29.57,SSE,147,15.0,19.7,59,0.00,,BKN250,0.00,VWS V14.01,2013-04-19 11:17:00,
2013-04-19 07:22:00,63.9,49.3,29.57,South,184,8.3,15.4,59,0.00,,BKN250,0.00,VWS V14.01,2013-04-19 11:22:00,
2013-04-19 07:27:00,63.9,49.7,29.57,SSE,163,12.3,14.5,60,0.00,,BKN250,0.00,VWS V14.01,2013-04-19 11:27:00,
2013-04-19 07:32:00,63.7,49.5,29.57,ESE,116,10.5,15.9,60,0.00,,BKN250,0.00,VWS V14.01,2013-04-19 11:32:00,
2013-04-19 07:37:00,63.9,49.7,29.54,South,189,11.4,19.2,60,0.00,,BKN250,0.00,VWS V14.01,2013-04-19 11:37:00,
2013-04-19 07:42:00,63.9,49.7,29.54,South,183,12.8,13.2,60,0.00,,BKN250,0.00,VWS V14.01,2013-04-19 11:42:00,
2013-04-19 07:47:00,64.0,50.3,29.54,South,172,13.2,14.5,61,0.00,,BKN250,0.00,VWS V14.01,2013-04-19 11:47:00,
2013-04-19 07:52:00,64.2,50.1,29.54,SSE,167,10.1,15.4,60,0.00,,BKN250,0.00,VWS V14.01,2013-04-19 11:52:00,
2013-04-19 07:57:00,64.2,50.1,29.54,SSW,200,10.5,10.5,60,0.00,,BKN250,0.00,VWS V14.01,2013-04-19 11:57:00,
2013-04-19 08:02:00,64.2,50.5,29.54,South,179,15.4,15.4,61,0.00,,BKN250,0.00,VWS V14.01,2013-04-19 12:02:00,
2013-04-19 08:07:00,64.2,50.5,29.54,SSE,168,12.8,12.8,61,0.00,,BKN250,0.00,VWS V14.01,2013-04-19 12:07:00,
2013-04-19 08:12:00,64.6,50.4,29.54,South,180,11.4,15.9,60,0.00,,BKN250,0.00,VWS V14.01,2013-04-19 12:12:00,
2013-04-19 08:17:00,64.9,50.7,29.54,SSW,193,11.0,19.7,60,0.00,,BKN250,0.00,VWS V14.01,2013-04-19 12:17:00,
2013-04-19 08:22:00,64.9,50.7,29.54,SSE,148,10.1,13.2,60,0.00,,BKN250,0.00,VWS V14.01,2013-04-19 12:22:00,
2013-04-19 08:27:00,65.3,50.6,29.54,SSE,167,17.0,24.6,59,0.00,,BKN250,0.00,VWS V14.01,2013-04-19 12:27:00,
2013-04-19 08:32:00,65.3,50.6,29.54,SSW,196,16.8,17.4,59,0.00,,OVC220,0.00,VWS V14.01,2013-04-19 12:32:00,
2013-04-19 08:37:00,65.3,50.6,29.54,SSE,166,11.9,14.5,59,0.00,,OVC220,0.00,VWS V14.01,2013-04-19 12:37:00,
2013-04-19 08:42:00,65.1,50.5,29.54,South,173,10.5,11.0,59,0.00,,OVC220,0.00,VWS V14.01,2013-04-19 12:42:00,
2013-04-19 08:47:00,65.3,50.6,29.54,South,178,12.3,15.9,59,0.00,,OVC220,0.00,VWS V14.01,2013-04-19 12:47:00,
2013-04-19 08:52:00,65.3,50.6,29.51,South,170,13.2,13.6,59,0.00,,OVC220,0.00,VWS V14.01,2013-04-19 12:52:00,
2013-04-19 08:57:00,65.5,50.8,29.51,South,180,19.7,19.7,59,0.00,,OVC220,0.00,VWS V14.01,2013-04-19 12:57:00,
2013-04-19 09:02:00,65.5,50.3,29.51,South,189,13.6,13.6,58,0.00,,OVC220,0.00,VWS V14.01,2013-04-19 13:02:00,
2013-04-19 09:07:00,65.7,50.5,29.51,SE,145,10.5,12.8,58,0.00,,OVC220,0.00,VWS V14.01,2013-04-19 13:07:00,
2013-04-19 09:12:00,65.7,50.5,29.51,South,182,13.6,13.6,58,0.00,,OVC220,0.00,VWS V14.01,2013-04-19 13:12:00,
2013-04-19 09:17:00,65.7,50.5,29.51,SSE,162,10.1,15.4,58,0.00,,OVC220,0.00,VWS V14.01,2013-04-19 13:17:00,
2013-04-19 09:22:00,65.7,50.5,29.51,South,185,13.2,19.7,58,0.00,,OVC220,0.00,VWS V14.01,2013-04-19 13:22:00,
2013-04-19 09:27:00,65.8,50.7,29.51,SSE,162,11.9,22.8,58,0.00,,OVC220,0.00,VWS V14.01,2013-04-19 13:27:00,
2013-04-19 09:32:00,65.7,50.5,29.51,South,181,13.2,13.2,58,0.00,,OVC220,0.00,VWS V14.01,2013-04-19 13:32:00,
2013-04-19 09:37:00,65.8,50.7,29.48,SE,143,20.6,20.6,58,0.00,,OVC220,0.00,VWS V14.01,2013-04-19 13:37:00,
2013-04-19 09:42:00,66.0,50.8,29.48,SSE,165,7.6,12.8,58,0.00,,OVC220,0.00,VWS V14.01,2013-04-19 13:42:00,
2013-04-19 09:47:00,66.0,50.8,29.48,South,177,14.1,17.9,58,0.00,,OVC220,0.00,VWS V14.01,2013-04-19 13:47:00,
2013-04-19 09:52:00,66.2,50.5,29.48,SSE,168,13.2,17.4,57,0.00,,OVC220,0.00,VWS V14.01,2013-04-19 13:52:00,
2013-04-19 09:57:00,66.2,50.5,29.48,SSW,210,14.5,17.4,57,0.00,,OVC220,0.00,VWS V14.01,2013-04-19 13:57:00,
2013-04-19 10:02:00,66.4,50.7,29.48,SSE,164,17.4,17.4,57,0.00,,OVC160,0.00,VWS V14.01,2013-04-19 14:02:00,
2013-04-19 10:07:00,66.6,50.9,29.48,South,178,8.7,22.8,57,0.00,,OVC160,0.00,VWS V14.01,2013-04-19 14:07:00,
2013-04-19 10:12:00,66.7,51.0,29.48,South,169,16.3,21.5,57,0.00,,OVC160,0.00,VWS V14.01,2013-04-19 14:12:00,
2013-04-19 10:17:00,66.9,50.7,29.48,South,180,13.6,19.7,56,0.00,,OVC160,0.00,VWS V14.01,2013-04-19 14:17:00,
2013-04-19 10:22:00,66.9,50.7,29.48,SW,228,13.2,24.6,56,0.00,,OVC160,0.00,VWS V14.01,2013-04-19 14:22:00,
2013-04-19 10:27:00,66.9,50.7,29.48,South,177,13.6,13.6,56,0.00,,OVC160,0.00,VWS V14.01,2013-04-19 14:27:00,
2013-04-19 10:33:00,67.3,51.1,29.48,South,173,15.4,19.7,56,0.00,,OVC150,0.00,VWS V14.01,2013-04-19 14:33:00,
2013-04-19 10:38:00,67.5,51.2,29.45,SSW,207,19.7,19.7,56,0.00,,OVC150,0.00,VWS V14.01,2013-04-19 14:38:00,
2013-04-19 10:43:00,67.5,51.2,29.45,South,175,12.3,18.3,56,0.00,,OVC150,0.00,VWS V14.01,2013-04-19 14:43:00,
2013-04-19 10:48:00,67.5,50.8,29.45,SSE,152,11.0,20.1,55,0.00,,OVC150,0.00,VWS V14.01,2013-04-19 14:48:00,
2013-04-19 10:53:00,67.3,50.6,29.45,South,183,12.8,17.0,55,0.00,,OVC150,0.00,VWS V14.01,2013-04-19 14:53:00,
2013-04-19 10:58:00,67.5,50.8,29.45,SSE,159,15.4,18.3,55,0.00,,OVC150,0.00,VWS V14.01,2013-04-19 14:58:00,
2013-04-19 11:03:00,67.6,50.9,29.45,South,171,12.8,15.4,55,0.00,,OVC150,0.00,VWS V14.01,2013-04-19 15:03:00,
2013-04-19 11:08:00,67.6,50.9,29.45,SSE,164,13.2,14.1,55,0.00,,OVC150,0.00,VWS V14.01,2013-04-19 15:08:00,
2013-04-19 11:13:00,67.8,50.6,29.45,South,177,10.5,13.2,54,0.00,,OVC150,0.00,VWS V14.01,2013-04-19 15:13:00,
2013-04-19 11:18:00,68.0,50.2,29.45,South,172,14.1,18.8,53,0.00,,OVC150,0.00,VWS V14.01,2013-04-19 15:18:00,
2013-04-19 11:23:00,68.2,50.4,29.45,SW,214,15.4,17.4,53,0.00,,OVC150,0.00,VWS V14.01,2013-04-19 15:23:00,
2013-04-19 11:28:00,68.5,50.8,29.45,SSW,202,13.2,17.4,53,0.00,,OVC150,0.00,VWS V14.01,2013-04-19 15:28:00,
2013-04-19 11:33:00,68.9,50.0,29.45,SSE,165,15.0,22.4,51,0.00,,OVC150,0.00,VWS V14.01,2013-04-19 15:33:00,
2013-04-19 11:38:00,68.7,50.4,29.45,SSE,160,11.0,15.4,52,0.00,,OVC150,0.00,VWS V14.01,2013-04-19 15:38:00,
2013-04-19 11:43:00,68.9,50.6,29.45,SSW,195,16.8,17.0,52,0.00,,OVC150,0.00,VWS V14.01,2013-04-19 15:43:00,
2013-04-19 11:48:00,69.1,50.7,29.45,South,181,15.0,17.0,52,0.00,,OVC150,0.00,VWS V14.01,2013-04-19 15:48:00,
2013-04-19 11:53:00,69.3,50.4,29.42,SSE,164,8.1,15.4,51,0.00,,OVC150,0.00,VWS V14.01,2013-04-19 15:53:00,
2013-04-19 11:58:00,69.1,50.7,29.42,SSE,168,13.6,13.6,52,0.00,,OVC150,0.00,VWS V14.01,2013-04-19 15:58:00,
2013-04-19 12:03:00,69.3,50.4,29.42,South,177,17.0,19.7,51,0.00,,-RA,0.00,VWS V14.01,2013-04-19 16:03:00,
2013-04-19 12:08:00,69.3,50.9,29.42,South,175,15.4,18.8,52,0.00,,-RA,0.00,VWS V14.01,2013-04-19 16:08:00,
2013-04-19 12:13:00,69.3,50.4,29.42,South,184,23.7,23.7,51,0.00,,-RA,0.00,VWS V14.01,2013-04-19 16:13:00,
2013-04-19 12:18:00,69.3,50.4,29.42,South,180,25.5,25.5,51,0.00,,-RA,0.00,VWS V14.01,2013-04-19 16:18:00,
2013-04-19 12:23:00,69.4,50.5,29.42,South,171,17.9,17.9,51,0.00,,-RA,0.00,VWS V14.01,2013-04-19 16:23:00,
2013-04-19 12:28:00,69.4,50.5,29.42,SSW,209,19.7,23.3,51,0.00,,-RA,0.00,VWS V14.01,2013-04-19 16:28:00,
2013-04-19 12:33:00,69.8,50.3,29.42,South,172,20.6,26.2,50,0.00,,-RA,0.00,VWS V14.01,2013-04-19 16:33:00,
2013-04-19 12:38:00,69.8,50.3,29.39,SSW,213,10.5,23.7,50,0.00,,-RA,0.00,VWS V14.01,2013-04-19 16:38:00,
2013-04-19 12:43:00,70.2,50.7,29.39,South,171,11.0,21.5,50,0.00,,-RA,0.00,VWS V14.01,2013-04-19 16:43:00,
2013-04-19 12:48:00,70.3,50.3,29.39,South,174,17.9,28.0,49,0.00,,-RA,0.00,VWS V14.01,2013-04-19 16:48:00,
2013-04-19 12:53:00,70.3,50.3,29.39,South,170,19.2,23.3,49,0.00,,-RA,0.00,VWS V14.01,2013-04-19 16:53:00,
2013-04-19 12:58:00,70.5,50.5,29.39,South,189,11.0,26.2,49,0.00,,-RA,0.00,VWS V14.01,2013-04-19 16:58:00,
2013-04-19 13:03:00,70.7,50.6,29.39,SSW,203,12.3,26.2,49,0.00,,-RA,0.00,VWS V14.01,2013-04-19 17:03:00,
2013-04-19 13:08:00,71.1,51.0,29.39,South,179,19.7,23.7,49,0.00,,-RA,0.00,VWS V14.01,2013-04-19 17:08:00,
2013-04-19 13:13:00,71.1,51.0,29.39,SW,216,13.6,26.2,49,0.00,,-RA,0.00,VWS V14.01,2013-04-19 17:13:00,
2013-04-19 13:18:00,71.1,51.5,29.39,SW,216,22.4,27.5,50,0.00,,-RA,0.00,VWS V14.01,2013-04-19 17:18:00,
2013-04-19 13:23:00,70.7,51.2,29.39,SSE,163,13.2,25.7,50,0.00,,-RA,0.00,VWS V14.01,2013-04-19 17:23:00,
2013-04-19 13:28:00,70.5,51.0,29.39,SSW,207,13.2,25.5,50,0.00,,-RA,0.00,VWS V14.01,2013-04-19 17:28:00,
2013-04-19 13:33:00,70.2,50.1,29.39,South,182,13.2,28.4,49,0.00,,-RA,0.00,VWS V14.01,2013-04-19 17:33:00,
2013-04-19 13:38:00,69.8,50.3,29.36,WSW,239,16.3,21.0,50,0.00,,-RA,0.00,VWS V14.01,2013-04-19 17:38:00,
2013-04-19 13:44:00,64.2,44.1,29.36,SW,233,18.8,18.8,48,0.00,,-RA,0.00,VWS V14.01,2013-04-19 17:44:00,
2013-04-19 13:49:00,60.4,42.2,29.36,SSW,193,7.6,21.9,51,0.00,,-RA,0.00,VWS V14.01,2013-04-19 17:49:00,
2013-04-19 13:54:00,57.7,39.8,29.42,NE,34,10.1,28.0,51,0.00,,-RA,0.00,VWS V14.01,2013-04-19 17:54:00,
2013-04-19 13:59:00,56.1,38.8,29.42,NW,304,11.4,22.8,52,0.00,,-RA,0.00,VWS V14.01,2013-04-19 17:59:00,
2013-04-19 14:04:00,55.4,39.0,29.42,West,276,7.6,15.4,54,0.00,,-RA,0.00,VWS V14.01,2013-04-19 18:04:00,
2013-04-19 14:09:00,53.4,38.1,29.45,SW,230,17.9,27.5,56,0.00,,-RA,0.00,VWS V14.01,2013-04-19 18:09:00,
2013-04-19 14:14:00,51.6,38.2,29.45,WNW,285,8.7,28.4,60,0.00,,-RA,0.00,VWS V14.01,2013-04-19 18:14:00,
2013-04-19 14:19:00,50.4,37.0,29.45,WSW,249,8.3,25.5,60,0.00,,-RA,0.00,VWS V14.01,2013-04-19 18:19:00,
2013-04-19 14:24:00,49.8,37.3,29.48,West,278,23.7,23.7,62,0.00,,-RA,0.00,VWS V14.01,2013-04-19 18:24:00,
2013-04-19 14:29:00,48.7,36.7,29.48,WSW,250,24.2,25.7,63,0.00,,-RA,0.00,VWS V14.01,2013-04-19 18:29:00,
2013-04-19 14:34:00,47.8,35.9,29.48,SW,214,15.4,26.2,63,0.00,,-RA,0.00,VWS V14.01,2013-04-19 18:34:00,
2013-04-19 14:39:00,47.3,35.8,29.51,SW,234,11.9,25.5,64,0.00,,-RA,0.00,VWS V14.01,2013-04-19 18:39:00,
2013-04-19 14:44:00,47.1,36.0,29.51,West,267,10.5,17.9,65,0.00,,-RA,0.00,VWS V14.01,2013-04-19 18:44:00,
2013-04-19 14:49:00,46.2,35.9,29.51,SW,219,14.5,24.6,67,0.00,,-RA,0.00,VWS V14.01,2013-04-19 18:49:00,
2013-04-19 14:54:00,46.9,37.7,29.48,West,274,14.5,17.4,70,0.00,,-RA,0.00,VWS V14.01,2013-04-19 18:54:00,
2013-04-19 14:59:00,46.8,37.5,29.48,West,259,24.2,24.2,70,0.00,,-RA,0.00,VWS V14.01,2013-04-19 18:59:00,
2013-04-19 15:04:00,46.4,37.2,29.48,SW,223,11.0,27.1,70,0.00,,-RA,0.00,VWS V14.01,2013-04-19 19:04:00,
2013-04-19 15:09:00,45.1,35.2,29.48,SE,139,8.7,34.9,68,0.00,,-RA,0.00,VWS V14.01,2013-04-19 19:09:00,
2013-04-19 15:14:00,45.3,36.5,29.48,SSE,158,12.3,28.0,71,0.00,,-RA,0.00,VWS V14.01,2013-04-19 19:14:00,
2013-04-19 15:19:00,45.5,37.7,29.48,SSW,206,17.4,28.0,74,0.00,,-RA,0.00,VWS V14.01,2013-04-19 19:19:00,
2013-04-19 15:24:00,45.3,37.2,29.48,SW,235,15.4,26.2,73,0.00,,-RA,0.00,VWS V14.01,2013-04-19 19:24:00,
2013-04-19 15:29:00,45.5,37.4,29.48,WSW,241,24.6,24.6,73,0.00,,-RA,0.00,VWS V14.01,2013-04-19 19:29:00,
2013-04-19 15:34:00,45.0,36.1,29.48,South,181,10.5,28.9,71,0.00,,OVC013,0.00,VWS V14.01,2013-04-19 19:34:00,
2013-04-19 15:39:00,44.6,35.4,29.51,SW,221,24.2,30.6,70,0.00,,OVC013,0.00,VWS V14.01,2013-04-19 19:39:00,
2013-04-19 15:44:00,44.2,35.5,29.51,WSW,248,17.4,29.3,71,0.00,,OVC013,0.00,VWS V14.01,2013-04-19 19:44:00,
2013-04-19 15:49:00,44.6,36.2,29.51,SSW,199,15.4,29.8,72,0.00,,OVC013,0.00,VWS V14.01,2013-04-19 19:49:00,
2013-04-19 15:54:00,44.6,36.2,29.51,WSW,243,13.2,28.4,72,0.00,,OVC013,0.00,VWS V14.01,2013-04-19 19:54:00,
2013-04-19 15:59:00,44.4,35.6,29.51,WSW,239,32.9,32.9,71,0.00,,OVC013,0.00,VWS V14.01,2013-04-19 19:59:00,
2013-04-19 16:04:00,43.7,34.2,29.51,West,262,18.8,32.0,69,0.00,,-RA,0.00,VWS V14.01,2013-04-19 20:04:00,
2013-04-19 16:09:00,43.3,33.5,29.51,SW,226,12.8,30.2,68,0.00,,-RA,0.00,VWS V14.01,2013-04-19 20:09:00,
2013-04-19 16:14:00,43.3,33.9,29.51,SW,222,11.0,26.6,69,0.00,,-RA,0.00,VWS V14.01,2013-04-19 20:14:00,
2013-04-19 16:19:00,42.8,33.3,29.51,WNW,296,23.7,32.9,69,0.00,,-RA,0.00,VWS V14.01,2013-04-19 20:19:00,
2013-04-19 16:25:00,42.3,32.1,29.51,WSW,248,16.3,31.5,67,0.00,,-RA,0.00,VWS V14.01,2013-04-19 20:25:00,
2013-04-19 16:30:00,41.7,32.7,29.51,SW,220,26.6,29.8,70,0.00,,-RA,0.00,VWS V14.01,2013-04-19 20:30:00,
2013-04-19 16:35:00,41.0,32.3,29.51,SW,223,15.4,31.1,71,0.00,,-RA,0.00,VWS V14.01,2013-04-19 20:35:00,
2013-04-19 16:40:00,40.6,32.7,29.51,SSW,193,15.4,27.5,73,0.00,,-RA,0.00,VWS V14.01,2013-04-19 20:40:00,
2013-04-19 16:49:00,41.4,33.4,29.51,SSW,196,16.3,16.3,73,0.04,,-RA,0.04,VWS V14.01,2013-04-19 20:49:00,
2013-04-19 16:54:00,41.5,33.2,29.51,WSW,242,21.5,33.8,72,0.04,,-RA,0.04,VWS V14.01,2013-04-19 20:54:00,
2013-04-19 17:00:00,41.5,32.8,29.51,WNW,291,11.0,28.4,71,0.04,,-RA,0.04,VWS V14.01,2013-04-19 21:00:00,
2013-04-19 17:05:00,41.9,32.8,29.51,WNW,291,21.9,33.8,70,0.04,,OVC250,0.04,VWS V14.01,2013-04-19 21:05:00,
2013-04-19 17:10:00,41.9,32.5,29.54,WSW,244,26.2,26.2,69,0.04,,OVC250,0.04,VWS V14.01,2013-04-19 21:10:00,
2013-04-19 17:15:00,41.7,31.2,29.54,WSW,244,18.3,18.3,66,0.04,,OVC250,0.04,VWS V14.01,2013-04-19 21:15:00,
2013-04-19 17:20:00,41.7,31.6,29.54,West,271,17.4,26.2,67,0.04,,OVC250,0.04,VWS V14.01,2013-04-19 21:20:00,
2013-04-19 17:25:00,42.1,31.6,29.54,West,276,15.4,19.7,66,0.04,,OVC250,0.04,VWS V14.01,2013-04-19 21:25:00,
2013-04-19 17:30:00,41.7,30.5,29.54,West,264,22.8,34.9,64,0.04,,OVC250,0.04,VWS V14.01,2013-04-19 21:30:00,
2013-04-19 17:35:00,41.7,30.5,29.57,SW,229,15.0,28.0,64,0.04,,OVC250,0.04,VWS V14.01,2013-04-19 21:35:00,
2013-04-19 17:40:00,41.5,29.9,29.57,WNW,291,25.7,32.9,63,0.04,,OVC250,0.04,VWS V14.01,2013-04-19 21:40:00,
2013-04-19 17:45:00,41.5,29.5,29.57,SSW,202,17.0,34.4,62,0.00,,OVC250,0.04,VWS V14.01,2013-04-19 21:45:00,
2013-04-19 17:50:00,41.5,29.9,29.57,WSW,245,12.3,26.2,63,0.00,,OVC250,0.04,VWS V14.01,2013-04-19 21:50:00,
2013-04-19 17:55:00,41.4,29.3,29.57,SSW,200,22.8,27.5,62,0.00,,OVC250,0.04,VWS V14.01,2013-04-19 21:55:00,
2013-04-19 18:00:00,41.4,29.7,29.57,West,278,14.1,24.6,63,0.00,,OVC250,0.04,VWS V14.01,2013-04-19 22:00:00,
2013-04-19 18:05:00,41.0,28.6,29.57,WSW,240,28.9,31.1,61,0.00,,OVC250,0.04,VWS V14.01,2013-04-19 22:05:00,
2013-04-19 18:10:00,41.0,28.6,29.57,WNW,285,10.5,29.8,61,0.00,,OVC250,0.04,VWS V14.01,2013-04-19 22:10:00,
2013-04-19 18:15:00,41.0,29.4,29.57,SSW,210,17.9,17.9,63,0.00,,OVC250,0.04,VWS V14.01,2013-04-19 22:15:00,
2013-04-19 18:20:00,41.0,29.0,29.60,WNW,282,11.0,17.4,62,0.00,,OVC250,0.04,VWS V14.01,2013-04-19 22:20:00,
2013-04-19 18:25:00,41.0,29.0,29.60,SW,234,17.4,19.7,62,0.00,,OVC250,0.04,VWS V14.01,2013-04-19 22:25:00,
2013-04-19 18:30:00,41.0,28.6,29.60,West,273,14.1,25.1,61,0.00,,OVC250,0.04,VWS V14.01,2013-04-19 22:30:00,
2013-04-19 18:36:00,41.0,28.6,29.60,West,279,13.6,28.4,61,0.00,,BKN250,0.04,VWS V14.01,2013-04-19 22:36:00,
2013-04-19 18:41:00,40.8,28.4,29.60,WSW,244,10.1,23.3,61,0.00,,BKN250,0.04,VWS V14.01,2013-04-19 22:41:00,
2013-04-19 18:46:00,40.8,28.4,29.60,WSW,258,11.0,26.2,61,0.00,,BKN250,0.04,VWS V14.01,2013-04-19 22:46:00,
2013-04-19 18:51:00,40.8,28.4,29.63,WNW,290,11.9,26.6,61,0.00,,BKN250,0.04,VWS V14.01,2013-04-19 22:51:00,
2013-04-19 18:56:00,40.6,28.3,29.63,West,260,11.4,19.2,61,0.00,,BKN250,0.04,VWS V14.01,2013-04-19 22:56:00,
2013-04-19 19:01:00,40.6,27.5,29.63,West,275,11.0,30.2,59,0.00,,BKN250,0.04,VWS V14.01,2013-04-19 23:01:00,
2013-04-19 19:06:00,40.6,27.9,29.63,South,190,13.2,26.2,60,0.00,,BKN250,0.04,VWS V14.01,2013-04-19 23:06:00,
2013-04-19 19:11:00,40.6,27.5,29.63,SW,231,11.0,11.0,59,0.00,,BKN250,0.04,VWS V14.01,2013-04-19 23:11:00,
2013-04-19 19:16:00,40.6,27.5,29.63,West,264,15.4,24.2,59,0.00,,BKN250,0.04,VWS V14.01,2013-04-19 23:16:00,
2013-04-19 19:21:00,40.6,27.5,29.63,West,272,10.5,19.2,59,0.00,,BKN250,0.04,VWS V14.01,2013-04-19 23:21:00,
2013-04-19 19:26:00,40.6,27.5,29.63,NW,325,7.6,23.7,59,0.00,,BKN250,0.04,VWS V14.01,2013-04-19 23:26:00,
2013-04-19 19:31:00,40.6,27.5,29.63,WSW,249,21.9,21.9,59,0.00,,BKN250,0.04,VWS V14.01,2013-04-19 23:31:00,
2013-04-19 19:36:00,40.6,27.5,29.63,West,260,15.4,15.4,59,0.00,,OVC200,0.04,VWS V14.01,2013-04-19 23:36:00,
2013-04-19 19:41:00,40.6,27.5,29.63,WSW,258,3.6,25.7,59,0.00,,OVC200,0.04,VWS V14.01,2013-04-19 23:41:00,
2013-04-19 19:46:00,40.6,27.0,29.63,SSW,211,8.7,12.8,58,0.00,,OVC200,0.04,VWS V14.01,2013-04-19 23:46:00,
2013-04-19 19:51:00,40.6,27.5,29.63,SW,226,8.7,12.8,59,0.00,,OVC200,0.04,VWS V14.01,2013-04-19 23:51:00,
2013-04-19 19:56:00,40.5,27.3,29.63,WSW,241,15.9,15.9,59,0.00,,OVC200,0.04,VWS V14.01,2013-04-19 23:56:00,
2013-04-19 20:01:00,40.5,27.3,29.63,WSW,255,11.0,19.7,59,0.00,,OVC200,0.04,VWS V14.01,2013-04-20 00:01:00,
2013-04-19 20:06:00,40.5,26.9,29.63,WSW,254,8.3,13.6,58,0.00,,OVC200,0.04,VWS V14.01,2013-04-20 00:06:00,
2013-04-19 20:11:00,40.5,27.3,29.63,WSW,254,15.0,27.5,59,0.00,,OVC200,0.04,VWS V14.01,2013-04-20 00:11:00,
2013-04-19 20:16:00,40.3,27.1,29.63,West,281,19.2,19.2,59,0.00,,OVC200,0.04,VWS V14.01,2013-04-20 00:16:00,
2013-04-19 20:21:00,40.3,27.1,29.63,SSW,210,13.2,17.4,59,0.00,,OVC200,0.04,VWS V14.01,2013-04-20 00:21:00,
2013-04-19 20:26:00,40.3,26.7,29.63,WNW,293,7.6,17.4,58,0.00,,OVC200,0.04,VWS V14.01,2013-04-20 00:26:00,
2013-04-19 20:31:00,40.3,27.1,29.63,SW,230,14.5,14.5,59,0.00,,OVC200,0.04,VWS V14.01,2013-04-20 00:31:00,
2013-04-19 20:36:00,40.3,26.3,29.63,West,262,12.8,16.8,57,0.00,,OVC200,0.04,VWS V14.01,2013-04-20 00:36:00,
2013-04-19 20:41:00,40.3,25.9,29.63,WNW,301,14.1,15.4,56,0.00,,OVC200,0.04,VWS V14.01,2013-04-20 00:41:00,
2013-04-19 20:46:00,40.3,26.3,29.63,WSW,238,27.1,27.1,57,0.00,,OVC200,0.04,VWS V14.01,2013-04-20 00:46:00,
2013-04-19 20:51:00,40.3,25.9,29.66,SW,230,8.3,11.0,56,0.00,,OVC200,0.04,VWS V14.01,2013-04-20 00:51:00,
2013-04-19 20:56:00,40.3,25.9,29.66,SW,218,13.2,14.5,56,0.00,,OVC200,0.04,VWS V14.01,2013-04-20 00:56:00,
2013-04-19 21:01:00,40.5,26.0,29.66,SW,234,11.9,11.9,56,0.00,,BKN250,0.04,VWS V14.01,2013-04-20 01:01:00,
2013-04-19 21:06:00,40.3,26.3,29.66,West,262,13.2,17.0,57,0.00,,BKN250,0.04,VWS V14.01,2013-04-20 01:06:00,
2013-04-19 21:11:00,40.5,26.4,29.66,SSW,212,8.7,12.8,57,0.00,,BKN250,0.04,VWS V14.01,2013-04-20 01:11:00,
2013-04-19 21:16:00,40.5,26.4,29.66,WSW,256,9.2,13.2,57,0.00,,BKN250,0.04,VWS V14.01,2013-04-20 01:16:00,
2013-04-19 21:21:00,40.5,26.4,29.66,SW,236,11.4,14.5,57,0.00,,BKN250,0.04,VWS V14.01,2013-04-20 01:21:00,
2013-04-19 21:26:00,40.5,26.4,29.66,SSW,203,11.0,20.1,57,0.00,,BKN250,0.04,VWS V14.01,2013-04-20 01:26:00,
2013-04-19 21:31:00,40.5,25.6,29.66,West,276,11.0,17.4,55,0.00,,BKN250,0.04,VWS V14.01,2013-04-20 01:31:00,
2013-04-19 21:36:00,40.5,26.0,29.69,WSW,252,24.2,24.2,56,0.00,,BKN250,0.04,VWS V14.01,2013-04-20 01:36:00,
2013-04-19 21:41:00,40.5,25.6,29.69,WSW,249,8.7,19.2,55,0.00,,BKN250,0.04,VWS V14.01,2013-04-20 01:41:00,
2013-04-19 21:46:00,40.5,25.6,29.69,SW,223,5.8,15.9,55,0.00,,BKN250,0.04,VWS V14.01,2013-04-20 01:46:00,
2013-04-19 21:51:00,40.5,25.1,29.69,SW,220,12.3,16.8,54,0.00,,BKN250,0.04,VWS V14.01,2013-04-20 01:51:00,
2013-04-19 21:57:00,40.3,25.4,29.69,SW,235,10.5,15.4,55,0.00,,BKN250,0.04,VWS V14.01,2013-04-20 01:57:00,
2013-04-19 22:02:00,40.3,25.4,29.69,WSW,246,7.6,17.9,55,0.00,,OVC050,0.04,VWS V14.01,2013-04-20 02:02:00,
2013-04-19 22:07:00,40.3,25.4,29.69,SW,228,12.3,17.4,55,0.00,,OVC050,0.04,VWS V14.01,2013-04-20 02:07:00,
2013-04-19 22:12:00,40.3,25.4,29.69,SW,221,17.4,21.5,55,0.00,,OVC050,0.04,VWS V14.01,2013-04-20 02:12:00,
2013-04-19 22:17:00,40.3,25.4,29.69,West,280,8.7,18.8,55,0.00,,OVC050,0.04,VWS V14.01,2013-04-20 02:17:00,
2013-04-19 22:22:00,40.3,25.4,29.69,SW,234,8.1,17.0,55,0.00,,OVC050,0.04,VWS V14.01,2013-04-20 02:22:00,
2013-04-19 22:27:00,40.3,25.4,29.69,West,262,7.6,19.7,55,0.00,,OVC050,0.04,VWS V14.01,2013-04-20 02:27:00,
2013-04-19 22:32:00,40.3,25.4,29.69,WSW,250,16.8,22.8,55,0.00,,OVC050,0.04,VWS V14.01,2013-04-20 02:32:00,
2013-04-19 22:37:00,40.3,25.4,29.72,West,275,11.0,22.8,55,0.00,,OVC050,0.04,VWS V14.01,2013-04-20 02:37:00,
2013-04-19 22:42:00,40.3,24.5,29.72,WSW,248,13.2,19.2,53,0.00,,OVC050,0.04,VWS V14.01,2013-04-20 02:42:00,
2013-04-19 22:48:00,40.3,25.0,29.72,WSW,250,12.3,13.2,54,0.00,,OVC050,0.04,VWS V14.01,2013-04-20 02:48:00,
2013-04-19 22:53:00,40.3,25.0,29.72,WSW,248,8.1,13.2,54,0.00,,OVC050,0.04,VWS V14.01,2013-04-20 02:53:00,
2013-04-19 22:58:00,40.1,24.8,29.72,WSW,247,15.0,18.3,54,0.00,,OVC050,0.04,VWS V14.01,2013-04-20 02:58:00,
2013-04-19 23:03:00,40.1,25.2,29.72,SW,226,8.3,15.0,55,0.00,,OVC050,0.04,VWS V14.01,2013-04-20 03:03:00,
2013-04-19 23:08:00,40.1,25.2,29.72,West,259,12.8,12.8,55,0.00,,OVC050,0.04,VWS V14.01,2013-04-20 03:08:00,
2013-04-19 23:13:00,40.1,25.2,29.72,West,260,6.3,13.2,55,0.00,,OVC050,0.04,VWS V14.01,2013-04-20 03:13:00,
2013-04-19 23:18:00,40.1,24.8,29.72,SW,235,9.6,19.2,54,0.00,,OVC050,0.04,VWS V14.01,2013-04-20 03:18:00,
2013-04-19 23:23:00,40.1,24.8,29.72,WSW,253,10.5,17.4,54,0.00,,OVC050,0.04,VWS V14.01,2013-04-20 03:23:00,
2013-04-19 23:28:00,40.1,24.8,29.72,WNW,291,15.0,21.0,54,0.00,,OVC050,0.04,VWS V14.01,2013-04-20 03:28:00,
2013-04-19 23:33:00,39.9,24.6,29.72,WSW,254,16.8,16.8,54,0.00,,OVC050,0.04,VWS V14.01,2013-04-20 03:33:00,
2013-04-19 23:38:00,39.9,24.6,29.72,WSW,251,5.8,15.0,54,0.00,,OVC050,0.04,VWS V14.01,2013-04-20 03:38:00,
2013-04-19 23:43:00,39.9,24.6,29.72,SW,234,11.0,11.0,54,0.00,,OVC050,0.04,VWS V14.01,2013-04-20 03:43:00,
2013-04-19 23:48:00,39.9,24.6,29.72,West,261,10.5,17.4,54,0.00,,OVC050,0.04,VWS V14.01,2013-04-20 03:48:00,
2013-04-19 23:53:00,39.9,25.1,29.72,SW,227,5.8,19.7,55,0.00,,OVC050,0.04,VWS V14.01,2013-04-20 03:53:00,
2013-04-19 23:58:00,39.9,24.6,29.72,West,275,8.7,19.2,54,0.00,,OVC050,0.04,VWS V14.01,2013-04-20 03:58:00,